Time;durP1;ratioP1;P1;durP2;ratioP2;P2;SDS_P1;SDS_P2;PMS_P1;PMS_P2;Temp;Humidity;BMP_temperature;BMP_pressure;BME280_temperature;BME280_humidity;BME280_pressure;Samples;Min_cycle;Max_cycle;Signal;HPM_P1;HPM_P2
2022/01/19 00:00:10;;;;;;;46.17;26.37;;;3.60;86.80;;;;;;5052831;28;20089;-73
2022/01/19 00:02:36;;;;;;;48.10;24.60;;;3.60;86.80;;;;;;5041891;28;20107;-73
2022/01/19 00:05:03;;;;;;;42.95;24.23;;;3.70;87.00;;;;;;5039551;28;20044;-73
2022/01/19 00:07:29;;;;;;;43.83;24.60;;;3.60;86.90;;;;;;5063248;28;20036;-73
2022/01/19 00:09:55;;;;;;;47.80;25.23;;;3.70;86.70;;;;;;5059575;28;20032;-73
2022/01/19 00:12:21;;;;;;;50.83;27.30;;;3.60;86.80;;;;;;5038523;28;20123;-73
2022/01/19 00:14:46;;;;;;;50.93;25.77;;;3.60;86.80;;;;;;5030417;28;20115;-73
2022/01/19 00:17:12;;;;;;;46.80;25.40;;;3.60;86.90;;;;;;5055905;28;20041;-73
2022/01/19 00:19:38;;;;;;;47.57;26.57;;;3.60;86.80;;;;;;5028458;28;20396;-73
2022/01/19 00:22:04;;;;;;;50.63;27.43;;;3.60;86.90;;;;;;5029111;28;20511;-73
2022/01/19 00:24:29;;;;;;;46.57;26.43;;;3.60;87.00;;;;;;5047978;28;20043;-73
2022/01/19 00:26:55;;;;;;;43.80;25.57;;;3.60;86.80;;;;;;5050898;28;20052;-73
2022/01/19 00:29:21;;;;;;;52.93;28.17;;;3.60;86.80;;;;;;5035973;28;20048;-73
2022/01/19 00:31:46;;;;;;;51.43;27.50;;;3.60;86.80;;;;;;5039893;28;20048;-73
2022/01/19 00:34:12;;;;;;;45.70;28.10;;;3.60;86.70;;;;;;5026549;28;20070;-73
2022/01/19 00:36:40;;;;;;;45.50;26.23;;;3.60;86.80;;;;;;5059033;28;20062;-73
2022/01/19 00:39:06;;;;;;;42.85;24.10;;;3.60;86.70;;;;;;5030559;28;20047;-73
2022/01/19 00:41:31;;;;;;;48.43;26.77;;;3.60;86.70;;;;;;5037223;28;20040;-74
2022/01/19 00:43:57;;;;;;;48.37;26.07;;;3.60;86.70;;;;;;5043787;28;20052;-73
2022/01/19 00:46:23;;;;;;;45.90;23.90;;;3.60;86.70;;;;;;5058754;28;20072;-73
2022/01/19 00:48:48;;;;;;;44.53;24.70;;;3.60;86.60;;;;;;5021483;28;20051;-73
2022/01/19 00:51:20;;;;;;;38.08;20.70;;;3.60;86.60;;;;;;5044830;28;20051;-72
2022/01/19 00:53:46;;;;;;;45.33;22.33;;;3.60;86.40;;;;;;5042398;28;20048;-73
2022/01/19 00:56:11;;;;;;;41.83;23.10;;;3.50;86.50;;;;;;5059373;28;20100;-73
2022/01/19 00:58:44;;;;;;;41.67;21.73;;;3.50;86.60;;;;;;5056312;28;20121;-73
2022/01/19 01:01:10;;;;;;;45.85;24.25;;;3.50;86.40;;;;;;5059406;28;20483;-73
2022/01/19 01:03:36;;;;;;;42.93;21.70;;;3.50;86.20;;;;;;5033481;28;20132;-73
2022/01/19 01:06:02;;;;;;;50.50;23.73;;;3.40;86.40;;;;;;5039055;28;20044;-73
2022/01/19 01:08:27;;;;;;;48.43;23.43;;;3.40;86.50;;;;;;5060669;28;20076;-73
2022/01/19 01:10:53;;;;;;;40.03;22.60;;;3.40;86.50;;;;;;5054159;28;20041;-73
2022/01/19 01:13:30;;;;;;;43.03;20.65;;;3.40;86.50;;;;;;5047279;28;20044;-73
2022/01/19 01:16:02;;;;;;;51.83;23.55;;;3.40;86.60;;;;;;5054074;28;20100;-73
2022/01/19 01:18:30;;;;;;;63.42;25.77;;;3.30;86.70;;;;;;5047207;28;20048;-73
2022/01/19 01:20:57;;;;;;;64.90;27.70;;;3.30;86.80;;;;;;5045877;28;20132;-73
2022/01/19 01:23:29;;;;;;;63.83;27.80;;;3.30;86.90;;;;;;5088750;28;20373;-73
2022/01/19 01:25:55;;;;;;;85.78;31.05;;;3.30;87.20;;;;;;5052458;28;20044;-74
2022/01/19 01:28:24;;;;;;;81.73;29.83;;;3.30;87.20;;;;;;5048847;28;20044;-74
2022/01/19 01:30:50;;;;;;;80.90;30.33;;;3.20;87.30;;;;;;5065683;28;20493;-73
2022/01/19 01:33:16;;;;;;;85.88;30.30;;;3.20;87.50;;;;;;5046188;28;20059;-73
2022/01/19 01:35:42;;;;;;;82.43;28.27;;;3.20;87.60;;;;;;5078273;28;20041;-73
2022/01/19 01:38:08;;;;;;;96.83;25.30;;;3.20;87.60;;;;;;5054716;28;20047;-73
2022/01/19 01:40:36;;;;;;;92.43;28.40;;;3.20;87.90;;;;;;5058419;28;20043;-73
2022/01/19 01:43:04;;;;;;;105.53;29.98;;;3.20;88.00;;;;;;5071328;28;20297;-73
2022/01/19 01:45:33;;;;;;;85.00;27.58;;;3.20;88.00;;;;;;5047864;28;20103;-73
2022/01/19 01:48:12;;;;;;;82.53;29.42;;;3.20;88.10;;;;;;5045145;28;20441;-73
2022/01/19 01:53:28;;;;;;;101.38;31.08;;;3.30;88.10;;;;;;5078871;28;20148;-73
2022/01/19 01:56:07;;;;;;;102.97;32.13;;;3.30;88.20;;;;;;5046584;28;20051;-73
2022/01/19 01:58:36;;;;;;;84.40;27.58;;;3.30;88.40;;;;;;5058097;28;20048;-73
2022/01/19 02:01:06;;;;;;;79.65;27.48;;;3.30;88.20;;;;;;5040958;28;20573;-73
2022/01/19 02:03:39;;;;;;;102.30;32.10;;;3.40;88.30;;;;;;5075155;28;20043;-73
2022/01/19 02:09:23;;;;;;;98.28;33.05;;;3.40;88.40;;;;;;5081186;28;20048;-73
2022/01/19 02:22:55;;;;;;;110.20;32.75;;;3.40;88.40;;;;;;5061135;28;20040;-73
2022/01/19 02:25:26;;;;;;;87.80;26.33;;;3.50;88.40;;;;;;5055914;28;20420;-73
2022/01/19 02:41:28;;;;;;;162.63;39.33;;;3.40;88.40;;;;;;5037038;28;20052;-73
2022/01/19 02:43:58;;;;;;;185.32;38.30;;;3.40;88.50;;;;;;5043092;28;20033;-73
2022/01/19 02:49:16;;;;;;;133.20;37.25;;;3.40;88.50;;;;;;5051087;28;20047;-73
2022/01/19 02:51:46;;;;;;;109.32;33.50;;;3.40;88.60;;;;;;5035365;28;20492;-73
2022/01/19 02:54:17;;;;;;;112.75;33.00;;;3.40;88.60;;;;;;5048183;28;20055;-73
2022/01/19 02:56:47;;;;;;;128.93;35.45;;;3.30;88.60;;;;;;5048025;28;20096;-74
2022/01/19 02:59:21;;;;;;;138.95;34.75;;;3.40;88.60;;;;;;5040602;28;20052;-72
2022/01/19 03:10:06;;;;;;;213.18;37.38;;;3.20;88.60;;;;;;5059878;28;20454;-73
2022/01/19 03:12:33;;;;;;;216.27;36.28;;;3.20;88.50;;;;;;5051327;28;20051;-73
2022/01/19 03:15:04;;;;;;;136.30;33.22;;;3.20;88.70;;;;;;5047664;28;20048;-73
2022/01/19 03:17:30;;;;;;;175.20;36.85;;;3.20;88.70;;;;;;5044040;28;20051;-73
2022/01/19 03:19:57;;;;;;;176.47;38.43;;;3.20;88.70;;;;;;5011849;28;20096;-73
2022/01/19 03:22:34;;;;;;;191.18;37.55;;;3.20;88.60;;;;;;5054915;28;20052;-73
2022/01/19 03:25:11;;;;;;;257.95;39.83;;;3.20;88.70;;;;;;5046304;28;20492;-73
2022/01/19 03:27:46;;;;;;;228.43;36.42;;;3.20;88.60;;;;;;5070841;28;20147;-73
2022/01/19 03:30:12;;;;;;;212.40;35.00;;;3.20;88.80;;;;;;5026292;28;20072;-74
2022/01/19 03:32:38;;;;;;;217.65;37.13;;;3.20;88.70;;;;;;5066144;28;20036;-73
2022/01/19 03:35:05;;;;;;;173.40;31.50;;;3.20;88.80;;;;;;5047101;28;20547;-73
2022/01/19 03:37:31;;;;;;;200.95;33.95;;;3.10;88.70;;;;;;5040694;28;20788;-73
2022/01/19 03:39:57;;;;;;;267.63;37.13;;;3.10;88.80;;;;;;5031642;28;20048;-73
2022/01/19 03:42:29;;;;;;;235.68;35.90;;;3.10;88.80;;;;;;5026751;28;20290;-73
2022/01/19 03:44:54;;;;;;;208.90;33.50;;;3.00;88.90;;;;;;5028105;28;20488;-74
2022/01/19 03:47:20;;;;;;;160.63;31.93;;;3.00;88.80;;;;;;5036395;28;20179;-73
2022/01/19 03:49:46;;;;;;;155.87;32.77;;;3.00;88.90;;;;;;5020392;28;20052;-73
2022/01/19 03:52:11;;;;;;;125.50;30.63;;;2.90;88.80;;;;;;5036689;28;20496;-73
2022/01/19 03:54:43;;;;;;;125.13;30.00;;;2.90;88.80;;;;;;5037046;28;20142;-72
2022/01/19 03:57:09;;;;;;;120.13;28.70;;;2.90;88.90;;;;;;5050257;28;20171;-73
2022/01/19 03:59:38;;;;;;;114.10;29.38;;;2.80;88.80;;;;;;5052952;28;20068;-73
2022/01/19 04:02:05;;;;;;;123.18;29.83;;;2.80;88.80;;;;;;5033626;28;20610;-73
2022/01/19 04:09:45;;;;;;;149.63;31.02;;;2.70;88.70;;;;;;5043958;28;20265;-73
2022/01/19 04:12:24;;;;;;;124.85;28.30;;;2.70;88.80;;;;;;5054579;28;20048;-72
2022/01/19 04:14:52;;;;;;;141.32;30.77;;;2.70;88.80;;;;;;5040770;28;20053;-74
2022/01/19 04:17:21;;;;;;;153.55;31.45;;;2.70;88.80;;;;;;5073074;28;20138;-73
2022/01/19 04:20:07;;;;;;;167.88;33.20;;;2.70;88.80;;;;;;5034862;28;20048;-73
2022/01/19 04:22:39;;;;;;;171.90;33.53;;;2.70;88.80;;;;;;5055079;28;20076;-73
2022/01/19 04:25:08;;;;;;;125.78;29.73;;;2.60;88.80;;;;;;5033447;28;20037;-72
2022/01/19 04:27:34;;;;;;;108.55;27.17;;;2.60;88.90;;;;;;5043177;28;20045;-73
2022/01/19 04:30:12;;;;;;;94.67;26.43;;;2.60;89.00;;;;;;5048270;28;20059;-72
2022/01/19 04:35:28;;;;;;;120.75;27.38;;;2.60;89.10;;;;;;5076904;28;20105;-73
2022/01/19 05:05:07;;;;;;;116.40;29.20;;;2.50;89.10;;;;;;5037348;28;20797;-73
2022/01/19 05:07:53;;;;;;;98.63;28.95;;;2.50;89.10;;;;;;5032477;28;20049;-73
2022/01/19 05:15:53;;;;;;;85.88;27.42;;;2.50;89.20;;;;;;5042329;28;20051;-73
2022/01/19 05:18:22;;;;;;;88.63;26.05;;;2.50;89.10;;;;;;5063513;28;20044;-73
2022/01/19 05:20:49;;;;;;;82.40;24.77;;;2.50;89.00;;;;;;5058215;28;20085;-73
2022/01/19 05:23:16;;;;;;;74.53;25.07;;;2.50;89.00;;;;;;5051605;28;20123;-73
2022/01/19 05:25:43;;;;;;;77.38;25.50;;;2.50;89.10;;;;;;5043815;28;20044;-73
2022/01/19 05:28:10;;;;;;;85.57;26.70;;;2.40;89.00;;;;;;5056487;28;20048;-73
2022/01/19 05:30:42;;;;;;;80.20;24.13;;;2.50;88.90;;;;;;5029798;28;20524;-73
2022/01/19 05:33:07;;;;;;;80.25;25.33;;;2.50;89.00;;;;;;5026764;28;20044;-73
2022/01/19 05:35:33;;;;;;;73.13;25.03;;;2.40;88.90;;;;;;5035708;28;20120;-72
2022/01/19 05:38:05;;;;;;;73.28;24.13;;;2.40;89.00;;;;;;5052715;28;20119;-73
2022/01/19 05:40:32;;;;;;;70.95;23.77;;;2.50;89.00;;;;;;5035128;28;20037;-73
2022/01/19 05:42:57;;;;;;;78.03;24.67;;;2.50;88.90;;;;;;5042672;28;20044;-73
2022/01/19 05:45:24;;;;;;;85.27;24.87;;;2.50;88.90;;;;;;5019937;28;20132;-74
2022/01/19 05:47:50;;;;;;;70.32;25.27;;;2.50;89.00;;;;;;5039570;28;20049;-74
2022/01/19 05:50:15;;;;;;;72.13;25.03;;;2.50;89.00;;;;;;5065675;28;20071;-73
2022/01/19 05:52:42;;;;;;;79.73;24.70;;;2.50;89.00;;;;;;5050850;28;20067;-73
2022/01/19 05:55:09;;;;;;;74.75;25.67;;;2.50;88.90;;;;;;5070435;28;20404;-73
2022/01/19 05:57:34;;;;;;;68.78;25.80;;;2.50;88.90;;;;;;5064416;28;20041;-73
2022/01/19 06:00:01;;;;;;;75.53;26.70;;;2.50;89.00;;;;;;5034949;28;20048;-73
2022/01/19 06:02:26;;;;;;;73.57;25.38;;;2.50;89.00;;;;;;5034936;28;20056;-73
2022/01/19 06:04:53;;;;;;;75.00;27.47;;;2.50;89.00;;;;;;5032822;28;20525;-74
2022/01/19 06:07:28;;;;;;;83.45;26.50;;;2.50;89.00;;;;;;5036365;28;20041;-73
2022/01/19 06:10:03;;;;;;;72.72;26.98;;;2.50;88.90;;;;;;5052034;28;20040;-73
2022/01/19 06:12:29;;;;;;;75.45;27.00;;;2.50;88.90;;;;;;5061891;28;20049;-73
2022/01/19 06:15:00;;;;;;;75.85;26.60;;;2.60;89.00;;;;;;5054174;28;20041;-73
2022/01/19 06:17:27;;;;;;;67.50;26.73;;;2.60;89.00;;;;;;5060837;28;20071;-73
2022/01/19 06:19:53;;;;;;;70.20;25.67;;;2.60;88.90;;;;;;5047461;28;20032;-73
2022/01/19 06:22:20;;;;;;;80.63;27.13;;;2.60;88.90;;;;;;5045014;28;20459;-73
2022/01/19 06:24:50;;;;;;;73.15;27.70;;;2.60;88.90;;;;;;5050269;28;20059;-73
2022/01/19 06:27:15;;;;;;;69.90;28.02;;;2.60;89.00;;;;;;5009150;28;20537;-73
2022/01/19 06:29:57;;;;;;;77.57;28.80;;;2.60;88.90;;;;;;5047456;28;20048;-73
2022/01/19 06:32:25;;;;;;;72.82;27.60;;;2.60;89.00;;;;;;5049458;28;20504;-73
2022/01/19 06:34:51;;;;;;;73.03;29.42;;;2.60;89.00;;;;;;5030145;28;20098;-73
2022/01/19 06:37:23;;;;;;;76.30;28.52;;;2.70;89.00;;;;;;5063137;28;20097;-73
2022/01/19 06:39:54;;;;;;;80.63;29.00;;;2.70;89.00;;;;;;5041369;28;20181;-73
2022/01/19 06:42:20;;;;;;;75.00;29.03;;;2.70;89.00;;;;;;5034845;28;20032;-73
2022/01/19 06:44:46;;;;;;;72.90;28.53;;;2.70;88.90;;;;;;5031878;28;20151;-73
2022/01/19 06:47:12;;;;;;;72.55;28.25;;;2.80;88.90;;;;;;5032118;28;20044;-73
2022/01/19 06:49:38;;;;;;;73.17;30.47;;;2.80;88.90;;;;;;5057749;28;20047;-73
2022/01/19 06:52:05;;;;;;;75.77;29.60;;;2.80;88.90;;;;;;5035591;28;20493;-73
2022/01/19 06:54:45;;;;;;;74.63;29.90;;;2.80;89.00;;;;;;5062609;28;20114;-73
2022/01/19 06:57:13;;;;;;;73.47;29.67;;;2.80;88.90;;;;;;5036033;28;20092;-73
2022/01/19 06:59:40;;;;;;;78.20;29.50;;;2.80;88.90;;;;;;5041162;28;20068;-73
2022/01/19 07:02:10;;;;;;;75.20;28.73;;;2.90;88.90;;;;;;5054192;28;20104;-74
2022/01/19 07:04:38;;;;;;;76.10;29.23;;;2.90;88.90;;;;;;5053097;28;20532;-73
2022/01/19 07:07:04;;;;;;;73.90;29.92;;;2.90;88.90;;;;;;5057855;28;20063;-73
2022/01/19 07:09:33;;;;;;;73.28;29.83;;;2.90;88.90;;;;;;5057120;28;20081;-73
2022/01/19 07:11:59;;;;;;;68.77;27.90;;;3.00;88.90;;;;;;5036278;28;20049;-73
2022/01/19 07:14:24;;;;;;;75.93;29.47;;;3.00;88.90;;;;;;5050480;28;20045;-73
2022/01/19 07:16:50;;;;;;;77.03;29.13;;;3.00;88.80;;;;;;5049465;28;20052;-73
2022/01/19 07:19:16;;;;;;;69.67;28.77;;;3.00;88.90;;;;;;5037808;28;20049;-74
2022/01/19 07:21:47;;;;;;;67.45;28.55;;;3.00;88.90;;;;;;5056890;28;20094;-73
2022/01/19 07:24:14;;;;;;;79.13;29.10;;;3.00;88.80;;;;;;5039981;28;20044;-73
2022/01/19 07:26:46;;;;;;;74.43;29.45;;;3.00;88.80;;;;;;5030494;28;20417;-73
2022/01/19 07:29:14;;;;;;;70.65;29.77;;;3.00;88.90;;;;;;5036652;28;20059;-73
2022/01/19 07:31:41;;;;;;;74.55;29.52;;;3.10;88.90;;;;;;5062013;28;20060;-73
2022/01/19 07:34:19;;;;;;;80.55;30.83;;;3.10;88.80;;;;;;5058996;28;20051;-73
2022/01/19 07:36:45;;;;;;;73.10;30.13;;;3.10;88.90;;;;;;5046108;28;20033;-73
2022/01/19 07:39:10;;;;;;;73.20;30.90;;;3.10;88.90;;;;;;5037318;28;20516;-73
2022/01/19 07:41:38;;;;;;;76.97;32.23;;;3.10;88.80;;;;;;5030418;28;20567;-73
2022/01/19 07:44:04;;;;;;;71.93;30.80;;;3.10;88.90;;;;;;5055878;28;20137;-73
2022/01/19 07:46:36;;;;;;;76.25;31.60;;;3.20;88.90;;;;;;5073432;28;20383;-73
2022/01/19 07:49:30;;;;;;;78.40;29.80;;;3.10;88.70;;;;;;5054848;28;20040;-73
2022/01/19 07:52:16;;;;;;;71.72;29.85;;;3.20;88.80;;;;;;5054359;28;20622;-73
2022/01/19 07:54:52;;;;;;;74.63;29.55;;;3.20;88.70;;;;;;5031993;28;20408;-73
2022/01/19 07:57:27;;;;;;;77.43;30.83;;;3.20;88.70;;;;;;5030181;28;20091;-73
2022/01/19 08:00:07;;;;;;;77.05;31.27;;;3.30;88.70;;;;;;5028574;28;20130;-74
2022/01/19 08:02:40;;;;;;;69.13;29.52;;;3.30;88.60;;;;;;5047450;28;20186;-73
2022/01/19 08:05:08;;;;;;;78.97;30.55;;;3.30;88.70;;;;;;5050894;28;20065;-73
2022/01/19 08:07:35;;;;;;;75.30;31.55;;;3.30;88.50;;;;;;5034183;28;20043;-73
2022/01/19 08:10:03;;;;;;;76.90;30.55;;;3.30;88.60;;;;;;5070331;28;20048;-73
2022/01/19 08:12:29;;;;;;;74.40;30.88;;;3.30;88.60;;;;;;5055412;28;20341;-73
2022/01/19 08:14:58;;;;;;;72.07;30.30;;;3.40;88.60;;;;;;5009873;28;20104;-73
2022/01/19 08:17:26;;;;;;;74.03;30.65;;;3.40;88.50;;;;;;5023809;28;20516;-73
2022/01/19 08:19:52;;;;;;;72.18;29.98;;;3.40;88.50;;;;;;5022499;28;20626;-73
2022/01/19 08:22:18;;;;;;;76.37;33.13;;;3.40;88.50;;;;;;5046530;28;20033;-73
2022/01/19 08:24:43;;;;;;;75.60;31.27;;;3.50;88.40;;;;;;5053892;28;20820;-73
2022/01/19 08:27:09;;;;;;;81.37;30.67;;;3.50;88.30;;;;;;5046312;28;20064;-73
2022/01/19 08:29:35;;;;;;;69.47;29.93;;;3.60;88.30;;;;;;5052093;28;20413;-73
2022/01/19 08:32:01;;;;;;;69.87;31.17;;;3.60;88.20;;;;;;5028405;28;20508;-73
2022/01/19 08:34:26;;;;;;;75.67;32.30;;;3.70;88.20;;;;;;5064991;28;20085;-73
2022/01/19 08:36:52;;;;;;;69.03;30.37;;;3.70;88.00;;;;;;5048331;28;20059;-73
2022/01/19 08:39:18;;;;;;;76.77;30.90;;;3.80;87.90;;;;;;5030911;28;20047;-73
2022/01/19 08:41:44;;;;;;;71.13;31.08;;;3.80;87.70;;;;;;5041513;28;20044;-73
2022/01/19 08:44:10;;;;;;;75.30;29.63;;;3.80;87.50;;;;;;5035029;28;20036;-73
2022/01/19 08:46:38;;;;;;;72.57;31.47;;;3.80;87.40;;;;;;5043745;28;20051;-73
2022/01/19 08:49:04;;;;;;;68.25;30.30;;;3.90;87.30;;;;;;5046629;28;20071;-74
2022/01/19 08:51:30;;;;;;;74.60;30.90;;;3.90;87.20;;;;;;5065606;28;20048;-73
2022/01/19 08:53:55;;;;;;;77.00;31.03;;;3.90;87.10;;;;;;5039978;28;20047;-73
2022/01/19 08:56:21;;;;;;;71.60;31.27;;;3.90;86.90;;;;;;5030717;28;20041;-73
2022/01/19 08:58:47;;;;;;;68.50;30.83;;;3.90;86.90;;;;;;5042439;28;20080;-73
2022/01/19 09:01:13;;;;;;;74.53;32.07;;;3.90;86.80;;;;;;5032718;28;20043;-73
2022/01/19 09:03:40;;;;;;;69.17;31.70;;;3.90;86.50;;;;;;5032493;28;20057;-73
2022/01/19 09:06:06;;;;;;;72.25;32.13;;;3.90;86.60;;;;;;5053525;28;20735;-73
2022/01/19 09:08:34;;;;;;;68.67;31.57;;;3.90;86.60;;;;;;5032312;28;20132;-73
2022/01/19 09:11:01;;;;;;;68.75;31.80;;;3.90;86.70;;;;;;5049228;28;20101;-73
2022/01/19 09:13:27;;;;;;;77.07;31.35;;;3.90;86.50;;;;;;5024001;28;20041;-73
2022/01/19 09:15:53;;;;;;;79.33;33.40;;;3.90;86.50;;;;;;5053245;28;20070;-73
2022/01/19 09:18:23;;;;;;;78.03;32.83;;;3.90;86.40;;;;;;5032026;28;20287;-73
2022/01/19 09:20:49;;;;;;;83.10;34.58;;;4.00;86.60;;;;;;5052947;28;20044;-73
2022/01/19 09:23:14;;;;;;;73.57;34.87;;;4.00;86.60;;;;;;5011644;28;20037;-73
2022/01/19 09:25:40;;;;;;;79.33;34.13;;;4.00;86.50;;;;;;5036338;28;20056;-73
2022/01/19 09:28:07;;;;;;;78.27;34.17;;;4.00;86.40;;;;;;5037501;28;20067;-73
2022/01/19 09:30:34;;;;;;;75.55;34.65;;;4.00;86.50;;;;;;5050724;28;20045;-73
2022/01/19 09:33:10;;;;;;;78.55;35.35;;;4.00;86.40;;;;;;5044262;28;20040;-73
2022/01/19 09:38:36;;;;;;;79.32;33.20;;;4.00;86.20;;;;;;5037067;28;20103;-73
2022/01/19 09:41:03;;;;;;;74.18;33.65;;;4.00;85.90;;;;;;5068873;28;20490;-73
2022/01/19 09:43:29;;;;;;;76.65;35.60;;;4.00;85.80;;;;;;5052396;28;20040;-73
2022/01/19 09:45:58;;;;;;;77.90;34.83;;;4.00;86.10;;;;;;5059013;28;20051;-73
2022/01/19 09:48:25;;;;;;;79.32;35.10;;;4.00;85.90;;;;;;5045259;28;20080;-73
2022/01/19 09:50:54;;;;;;;80.35;35.60;;;4.00;85.90;;;;;;5077153;28;20445;-73
2022/01/19 09:53:20;;;;;;;78.28;35.63;;;4.00;85.80;;;;;;5067321;28;20048;-73
2022/01/19 09:55:47;;;;;;;84.10;36.50;;;4.00;85.90;;;;;;5062504;28;20037;-72
2022/01/19 09:58:14;;;;;;;80.78;36.25;;;4.00;85.90;;;;;;5056834;28;20527;-72
2022/01/19 10:00:42;;;;;;;75.97;35.72;;;4.00;86.10;;;;;;5063361;28;20525;-73
2022/01/19 10:03:27;;;;;;;77.97;35.80;;;4.00;86.00;;;;;;5045886;28;20064;-73
2022/01/19 10:06:09;;;;;;;80.32;33.78;;;4.00;86.20;;;;;;5039291;28;20106;-73
2022/01/19 10:08:57;;;;;;;90.43;36.42;;;4.00;86.20;;;;;;5056467;28;20041;-73
2022/01/19 10:17:00;;;;;;;77.20;36.63;;;4.00;86.00;;;;;;5042064;28;20051;-73
2022/01/19 10:19:37;;;;;;;77.53;33.85;;;4.10;86.20;;;;;;5056185;28;20045;-73
2022/01/19 10:22:03;;;;;;;80.10;34.25;;;4.10;86.30;;;;;;5060345;28;20045;-73
2022/01/19 10:24:47;;;;;;;72.27;31.50;;;4.10;86.30;;;;;;5070247;28;20048;-73
2022/01/19 10:27:22;;;;;;;71.05;33.20;;;4.20;86.10;;;;;;5040587;28;20389;-73
2022/01/19 10:30:13;;;;;;;64.50;32.78;;;4.20;86.30;;;;;;5058104;28;20106;-73
2022/01/19 10:32:55;;;;;;;70.20;32.30;;;4.30;86.00;;;;;;5053183;28;20090;-73
2022/01/19 10:35:36;;;;;;;70.85;33.92;;;4.40;85.60;;;;;;5061306;28;20049;-73
2022/01/19 10:38:26;;;;;;;76.07;34.80;;;4.50;84.90;;;;;;5060466;28;20102;-72
2022/01/19 10:40:55;;;;;;;70.38;34.17;;;4.50;85.20;;;;;;5043753;28;20040;-73
2022/01/19 10:43:27;;;;;;;74.25;35.45;;;4.60;85.00;;;;;;5069934;28;20090;-73
2022/01/19 10:45:54;;;;;;;65.10;33.55;;;4.60;84.90;;;;;;5066641;28;20140;-73
2022/01/19 10:48:31;;;;;;;74.25;35.10;;;4.70;84.70;;;;;;5037890;28;20386;-73
2022/01/19 10:51:12;;;;;;;68.43;34.78;;;4.80;84.80;;;;;;5043177;28;20051;-72
2022/01/19 10:53:41;;;;;;;68.85;33.45;;;4.80;84.80;;;;;;5068098;28;20044;-73
2022/01/19 10:56:28;;;;;;;69.93;32.90;;;4.90;84.60;;;;;;5044759;28;20049;-73
2022/01/19 10:59:03;;;;;;;72.75;34.10;;;4.90;84.50;;;;;;5059910;28;20048;-73
2022/01/19 11:01:33;;;;;;;76.63;33.88;;;5.00;84.40;;;;;;5054056;28;20032;-73
2022/01/19 11:04:22;;;;;;;67.25;33.60;;;5.00;84.60;;;;;;5048795;28;20082;-73
2022/01/19 11:06:51;;;;;;;76.10;36.53;;;5.10;84.60;;;;;;5041821;28;20048;-73
2022/01/19 11:09:22;;;;;;;75.15;34.83;;;5.10;84.20;;;;;;5062416;28;20045;-73
2022/01/19 11:11:48;;;;;;;69.57;35.67;;;5.20;84.20;;;;;;5031261;28;20047;-72
2022/01/19 11:14:16;;;;;;;69.50;33.85;;;5.40;84.00;;;;;;5036773;28;20052;-73
2022/01/19 11:16:42;;;;;;;66.82;34.67;;;5.50;83.70;;;;;;5058403;28;20496;-72
2022/01/19 11:19:09;;;;;;;70.03;33.63;;;5.70;83.60;;;;;;5045224;28;20500;-73
2022/01/19 11:21:51;;;;;;;67.20;32.95;;;5.90;83.50;;;;;;5031882;28;20124;-73
2022/01/19 11:24:31;;;;;;;61.65;31.42;;;6.00;82.50;;;;;;5067358;28;20716;-73
2022/01/19 11:26:58;;;;;;;65.55;30.88;;;6.20;82.70;;;;;;5037574;28;20107;-73
2022/01/19 11:29:25;;;;;;;60.10;29.52;;;6.40;82.00;;;;;;5053613;28;20049;-73
2022/01/19 11:31:52;;;;;;;62.67;29.80;;;6.50;81.40;;;;;;5035945;28;20059;-73
2022/01/19 11:34:57;;;;;;;58.22;29.73;;;6.40;80.40;;;;;;5050643;28;20897;-73
2022/01/19 11:37:43;;;;;;;62.00;32.25;;;6.20;80.40;;;;;;4974925;28;20532;-73
2022/01/19 11:40:13;;;;;;;58.80;30.50;;;6.10;80.70;;;;;;4973280;28;20041;-73
2022/01/19 11:42:40;;;;;;;60.88;30.27;;;5.90;80.80;;;;;;5034040;28;20123;-73
2022/01/19 11:45:08;;;;;;;64.00;32.58;;;5.70;81.50;;;;;;5038484;28;20045;-73
2022/01/19 11:47:35;;;;;;;62.67;31.55;;;5.70;81.90;;;;;;5050969;28;20080;-72
2022/01/19 11:50:18;;;;;;;58.90;31.42;;;5.60;81.70;;;;;;5023976;28;20401;-72
2022/01/19 11:52:44;;;;;;;61.20;30.48;;;5.60;82.40;;;;;;5037820;28;20041;-72
2022/01/19 11:55:22;;;;;;;51.33;26.63;;;5.50;82.40;;;;;;5051573;28;20051;-72
2022/01/19 11:57:51;;;;;;;63.13;28.75;;;5.50;82.20;;;;;;5054432;28;20072;-72
2022/01/19 12:00:31;;;;;;;58.00;28.77;;;5.40;82.20;;;;;;5050901;28;20067;-72
2022/01/19 12:02:58;;;;;;;55.67;28.35;;;5.40;82.70;;;;;;5053839;28;20058;-72
2022/01/19 12:05:28;;;;;;;53.45;28.05;;;5.40;82.70;;;;;;5036609;28;20512;-72
2022/01/19 12:08:03;;;;;;;49.10;25.92;;;5.40;82.80;;;;;;5053227;28;20067;-72
2022/01/19 12:10:30;;;;;;;48.38;23.33;;;5.40;83.00;;;;;;5062092;28;20455;-72
2022/01/19 12:16:07;;;;;;;37.17;19.02;;;5.40;82.20;;;;;;5053525;28;20079;-72
2022/01/19 12:18:53;;;;;;;34.85;16.27;;;5.50;81.90;;;;;;5052763;28;20645;-72
2022/01/19 12:21:31;;;;;;;27.95;12.18;;;5.50;81.80;;;;;;5036332;28;20584;-72
2022/01/19 12:24:26;;;;;;;23.35;9.85;;;5.50;81.00;;;;;;5049323;28;20484;-73
2022/01/19 12:27:13;;;;;;;23.15;9.02;;;5.50;80.70;;;;;;5047031;28;20044;-73
2022/01/19 12:29:40;;;;;;;20.25;8.82;;;5.50;80.40;;;;;;5052828;28;20041;-73
2022/01/19 12:32:08;;;;;;;21.08;8.15;;;5.50;80.10;;;;;;5053722;28;20125;-73
2022/01/19 12:34:43;;;;;;;24.08;8.55;;;5.60;80.30;;;;;;5053199;28;20099;-73
2022/01/19 12:37:10;;;;;;;19.42;7.97;;;5.60;79.80;;;;;;5050087;28;20055;-73
2022/01/19 12:39:39;;;;;;;22.02;8.25;;;5.70;79.30;;;;;;5036772;28;20041;-73
2022/01/19 12:42:08;;;;;;;20.77;9.18;;;5.70;80.10;;;;;;5055096;28;20036;-73
2022/01/19 12:44:50;;;;;;;18.10;7.90;;;5.70;79.60;;;;;;5047816;28;20045;-73
2022/01/19 12:47:28;;;;;;;19.00;8.10;;;5.70;79.20;;;;;;5049583;28;20045;-73
2022/01/19 12:50:09;;;;;;;20.13;7.55;;;5.70;79.60;;;;;;5053042;28;20071;-73
2022/01/19 12:52:43;;;;;;;21.48;8.27;;;5.70;79.20;;;;;;5049091;28;20075;-73
2022/01/19 12:55:16;;;;;;;18.33;7.55;;;5.70;79.40;;;;;;5039955;28;20055;-74
2022/01/19 12:57:42;;;;;;;25.83;7.63;;;5.80;79.50;;;;;;5036680;28;20041;-73
2022/01/19 13:00:10;;;;;;;18.43;7.87;;;5.80;79.50;;;;;;5038849;28;20037;-73
2022/01/19 13:02:36;;;;;;;20.40;7.00;;;5.80;79.60;;;;;;5071738;28;20132;-73
2022/01/19 13:05:12;;;;;;;21.90;7.85;;;5.80;79.80;;;;;;5056535;28;20045;-73
2022/01/19 13:07:40;;;;;;;24.60;7.78;;;5.80;79.80;;;;;;5056834;28;20433;-73
2022/01/19 13:10:23;;;;;;;16.55;6.93;;;5.80;79.50;;;;;;5051448;28;20052;-73
2022/01/19 13:12:57;;;;;;;19.83;6.68;;;5.80;79.40;;;;;;5058104;28;20509;-73
2022/01/19 13:15:25;;;;;;;16.98;6.53;;;5.70;79.50;;;;;;5044694;28;20052;-73
2022/01/19 13:17:52;;;;;;;22.10;7.03;;;5.70;79.70;;;;;;5037085;28;20372;-73
2022/01/19 13:20:28;;;;;;;21.08;7.32;;;5.70;79.70;;;;;;5058576;28;20119;-73
2022/01/19 13:22:56;;;;;;;18.85;6.68;;;5.60;79.90;;;;;;5056999;28;20033;-73
2022/01/19 13:25:30;;;;;;;18.20;6.75;;;5.60;80.00;;;;;;5064307;28;20045;-72
2022/01/19 13:28:01;;;;;;;20.58;6.70;;;5.60;80.00;;;;;;5043725;28;20063;-72
2022/01/19 13:30:31;;;;;;;17.05;6.65;;;5.60;80.30;;;;;;5064022;28;20041;-72
2022/01/19 13:32:57;;;;;;;23.58;6.57;;;5.60;81.10;;;;;;5045322;28;20036;-73
2022/01/19 13:35:25;;;;;;;29.52;8.75;;;5.60;81.60;;;;;;5042502;28;20044;-73
2022/01/19 13:37:58;;;;;;;21.70;6.82;;;5.50;82.40;;;;;;5041759;28;20119;-73
2022/01/19 13:40:33;;;;;;;25.27;7.15;;;5.40;83.00;;;;;;5041187;28;20041;-73
2022/01/19 13:43:08;;;;;;;24.90;7.50;;;5.40;83.50;;;;;;5042126;28;20036;-73
2022/01/19 13:48:21;;;;;;;29.15;8.50;;;5.30;84.10;;;;;;5070075;28;20558;-73
2022/01/19 13:50:49;;;;;;;24.80;8.00;;;5.30;84.50;;;;;;5054063;28;20067;-73
2022/01/19 13:53:24;;;;;;;18.98;7.43;;;5.30;84.70;;;;;;5076160;28;20047;-73
2022/01/19 13:55:51;;;;;;;26.95;8.15;;;5.30;85.10;;;;;;5072581;28;20120;-73
2022/01/19 13:58:17;;;;;;;28.00;8.85;;;5.30;85.50;;;;;;5041301;28;20049;-74
2022/01/19 14:00:58;;;;;;;28.27;8.70;;;5.30;86.00;;;;;;5043294;28;20098;-74
2022/01/19 14:03:25;;;;;;;28.63;8.73;;;5.30;86.30;;;;;;5052719;28;20498;-74
2022/01/19 14:05:55;;;;;;;29.98;9.50;;;5.20;86.60;;;;;;5055565;28;20045;-74
2022/01/19 14:08:32;;;;;;;34.85;9.80;;;5.20;87.00;;;;;;5071473;28;20040;-74
2022/01/19 14:10:59;;;;;;;30.75;9.98;;;5.20;87.20;;;;;;5072400;28;20044;-73
2022/01/19 14:13:35;;;;;;;24.25;9.65;;;5.20;87.40;;;;;;5072179;28;20036;-74
2022/01/19 14:16:25;;;;;;;32.60;10.20;;;5.20;87.70;;;;;;5063713;28;20041;-74
2022/01/19 14:19:11;;;;;;;33.47;10.82;;;5.20;87.80;;;;;;5068153;28;20052;-73
2022/01/19 14:21:54;;;;;;;30.20;10.15;;;5.20;88.10;;;;;;5053986;28;20029;-74
2022/01/19 14:24:20;;;;;;;31.65;10.93;;;5.20;88.20;;;;;;5036586;28;20140;-73
2022/01/19 14:26:55;;;;;;;32.53;10.63;;;5.20;88.30;;;;;;5030530;28;20538;-73